Bath, United Kingdom

7:59 PM BST on June 03, 2015 (GMT +0100)
Lower Weston | | Change Station
CLOSE
Current Station
Personal Weather Station
Location: Bath, Somerset
Elevation: 118 ft
Nearby Weather Stations

Elev 118 ft 51.39 °N, 2.38 °W | Updated 7 seconds ago

Clear
Clear
58.8 °F
Feels Like 58.8 °F
N
6.9
Wind Variable Wind from WSW
Gusts 6.9 mph

Today
High -- | Low -- °F
--% Chance of Precip.
Yesterday
High -- | Low -- °F
Precip. -- in
4:57 AM 9:18 PM
Full, 99% visible
Pressure 30.30 in
Visibility -9999.0 miles
Clouds
Dew Point 42 °F
Humidity 53%
Rainfall 0.04 in
Snow Depth Not available.
UV Not available.
Pollen Not available.
Air Quality Not available.
Flu Activity Not available.
METAR EGGD 031850Z 28010KT CAVOK 13/05 Q1026

More Conditions Fewer Conditions

Pressure 30.30 in
Visibility -9999.0 miles
Clouds
Dew Point 42 °F
Humidity 53%
Rainfall 0.04 in
Snow Depth Not available.
UV Not available.
Pollen Not available.
Air Quality Not available.
Flu Activity Not available.
METAR EGGD 031850Z 28010KT CAVOK 13/05 Q1026

More Conditions Fewer Conditions

10-Day Weather Forecast

×

Almanac

Astronomy

Jun. 03, 2015 Rise Set
Actual Time
Civil Twilight
Nautical Twilight
Astronomical Twilight
Moon
Length of Visible Light
Length of Day
Tomorrow will be .
, % of the Moon is Illuminated

Today's Extremes

Country Highs Country Lows

Community

WunderPhotos

Upload Photos

1,826,270 photos uploaded!

WunderBlogs® & News

Nearby

Air Quality

  Air Quality AQ Index Pollutant
Not available.

Snow Depth

Station Depth Elevation

Earthquake Activity

City Distance Mag. Time & Date
Minimum magnitude displayed is 2.5.

Coastal Water Temperatures

Place Temperature

Stations

Nearby Weather Stations

Station Location Temp. Windchill Dew Point Humidity Wind Precip. Elev Updated Type